Time;durP1;ratioP1;P1;durP2;ratioP2;P2;SDS_P1;SDS_P2;PMS_P1;PMS_P2;Temp;Humidity;BMP_temperature;BMP_pressure;BME280_temperature;BME280_humidity;BME280_pressure;Samples;Min_cycle;Max_cycle;Signal;HPM_P1;HPM_P2
2021/10/23 00:01:43;;;;;;;7.60;2.33;;;;;;;5.10;98.68;96962.00;5038217;28;20761;-76
2021/10/23 00:04:11;;;;;;;9.13;2.13;;;;;;;5.09;98.00;96955.09;5034602;28;20103;-76
2021/10/23 00:06:37;;;;;;;9.33;2.60;;;;;;;5.05;98.32;96953.66;5043688;28;20037;-76
2021/10/23 00:09:02;;;;;;;7.80;2.30;;;;;;;5.06;98.56;96955.31;5044153;28;20173;-76
2021/10/23 00:11:28;;;;;;;9.37;2.27;;;;;;;5.10;98.73;96964.59;5027735;28;20034;-76
2021/10/23 00:13:54;;;;;;;4.50;2.17;;;;;;;5.07;99.00;96964.81;5035031;28;20052;-77
2021/10/23 00:16:19;;;;;;;9.40;2.30;;;;;;;5.06;98.97;96961.34;5027300;28;20025;-76
2021/10/23 00:18:45;;;;;;;6.13;2.10;;;;;;;5.08;99.02;96964.69;5033875;28;20403;-76
2021/10/23 00:21:11;;;;;;;5.07;1.73;;;;;;;5.12;99.04;96965.31;5015997;28;20376;-76
2021/10/23 00:23:36;;;;;;;5.50;1.93;;;;;;;5.08;98.57;96969.91;5036048;28;20371;-76
2021/10/23 00:26:03;;;;;;;9.50;3.10;;;;;;;5.06;98.57;96965.75;5035422;28;20037;-75
2021/10/23 00:28:28;;;;;;;8.07;2.53;;;;;;;5.07;98.23;96964.81;5035359;28;20462;-77
2021/10/23 00:30:54;;;;;;;7.67;2.10;;;;;;;5.09;99.02;96968.13;5024375;28;20040;-76
2021/10/23 00:33:20;;;;;;;8.90;2.47;;;;;;;5.04;99.08;96967.63;5035871;28;20111;-76
2021/10/23 00:35:45;;;;;;;8.40;3.07;;;;;;;5.02;99.84;96967.72;5027883;28;20048;-76
2021/10/23 00:38:11;;;;;;;7.30;2.13;;;;;;;5.06;99.29;96968.34;5035857;28;20032;-76
2021/10/23 00:40:37;;;;;;;4.67;1.77;;;;;;;5.04;100.00;96971.06;5040208;28;20039;-76
2021/10/23 00:43:03;;;;;;;9.37;2.63;;;;;;;5.08;100.00;96969.09;5030817;28;20446;-77
2021/10/23 00:45:29;;;;;;;5.07;2.00;;;;;;;5.03;99.70;96971.16;5032621;28;20053;-76
2021/10/23 00:47:55;;;;;;;6.87;2.23;;;;;;;4.95;100.00;96977.75;5034057;28;20056;-76
2021/10/23 00:50:20;;;;;;;10.20;2.30;;;;;;;4.95;100.00;96977.75;5021228;28;20063;-76
2021/10/23 00:52:48;;;;;;;12.43;2.47;;;;;;;4.89;100.00;96975.56;5039297;28;20017;-76
2021/10/23 00:55:14;;;;;;;7.50;2.10;;;;;;;4.87;100.00;96980.06;5035391;28;20136;-76
2021/10/23 00:57:39;;;;;;;10.47;2.43;;;;;;;4.81;100.00;96982.25;5026423;28;20063;-76
2021/10/23 01:00:08;;;;;;;7.80;1.83;;;;;;;4.82;100.00;96978.69;5032538;28;20034;-76
2021/10/23 01:02:35;;;;;;;7.07;2.30;;;;;;;4.81;100.00;96980.47;5034555;28;20326;-76
2021/10/23 01:05:06;;;;;;;8.93;2.67;;;;;;;4.81;100.00;96977.88;5027944;28;20049;-76
2021/10/23 01:07:33;;;;;;;6.33;2.30;;;;;;;4.85;100.00;96983.69;5030113;28;20029;-76
2021/10/23 01:10:00;;;;;;;9.73;2.30;;;;;;;4.85;100.00;96979.31;5071565;28;20025;-76
2021/10/23 01:12:26;;;;;;;9.37;2.13;;;;;;;4.96;100.00;96982.03;5017186;28;20037;-75
2021/10/23 01:14:52;;;;;;;9.67;2.40;;;;;;;4.85;100.00;96984.53;5033967;28;20022;-76
2021/10/23 01:17:22;;;;;;;11.87;2.73;;;;;;;4.81;100.00;96982.25;5036279;28;20091;-76
2021/10/23 01:19:57;;;;;;;9.57;2.43;;;;;;;4.88;100.00;96989.53;5025672;28;20022;-76
2021/10/23 01:22:28;;;;;;;6.27;2.03;;;;;;;4.82;100.00;96989.94;5030035;28;20100;-76
2021/10/23 01:24:55;;;;;;;5.37;1.87;;;;;;;4.78;100.00;96993.72;5036250;28;20402;-77
2021/10/23 01:27:20;;;;;;;6.60;2.23;;;;;;;4.78;100.00;96987.69;5051263;28;20100;-75
2021/10/23 01:29:46;;;;;;;9.53;3.00;;;;;;;4.76;100.00;96989.53;5029072;28;20542;-76
2021/10/23 01:32:12;;;;;;;5.13;1.83;;;;;;;4.81;100.00;96988.28;5028070;28;20407;-76
2021/10/23 01:34:38;;;;;;;7.10;3.03;;;;;;;4.85;100.00;96989.75;5030511;28;20060;-76
2021/10/23 01:37:03;;;;;;;8.07;2.30;;;;;;;4.81;100.00;96998.72;5022308;28;20037;-76
2021/10/23 01:39:33;;;;;;;7.30;2.20;;;;;;;4.89;100.00;97004.22;5031579;28;20113;-76
2021/10/23 01:42:00;;;;;;;8.17;2.07;;;;;;;4.89;100.00;97000.78;5033907;28;20122;-76
2021/10/23 01:44:30;;;;;;;6.67;2.10;;;;;;;4.87;100.00;96998.31;5037902;28;20430;-77
2021/10/23 01:46:55;;;;;;;5.17;2.10;;;;;;;4.90;100.00;97002.47;5034487;28;20037;-76
2021/10/23 01:49:22;;;;;;;8.07;2.30;;;;;;;4.89;100.00;96995.56;5015137;28;20112;-76
2021/10/23 01:51:49;;;;;;;9.87;2.00;;;;;;;4.88;100.00;97004.34;5044429;28;20501;-77
2021/10/23 01:54:15;;;;;;;6.00;1.83;;;;;;;4.88;100.00;96997.34;5039675;28;20037;-76
2021/10/23 01:56:42;;;;;;;7.47;2.03;;;;;;;4.88;100.00;96989.53;5030781;28;20037;-76
2021/10/23 01:59:09;;;;;;;6.43;2.23;;;;;;;4.90;100.00;96999.88;5031239;28;20036;-76
2021/10/23 02:01:35;;;;;;;7.53;1.77;;;;;;;4.93;100.00;96992.69;5036938;28;20524;-76
2021/10/23 02:04:01;;;;;;;7.77;2.23;;;;;;;4.90;100.00;97000.72;5029255;28;20561;-75
2021/10/23 02:06:27;;;;;;;6.83;1.90;;;;;;;4.88;100.00;96991.31;5020932;28;20562;-76
2021/10/23 02:08:53;;;;;;;7.97;2.23;;;;;;;4.87;100.00;97000.91;5036384;28;20537;-75
2021/10/23 02:11:19;;;;;;;7.43;2.43;;;;;;;4.87;100.00;96992.25;5041925;28;20076;-76
2021/10/23 02:13:45;;;;;;;7.57;2.30;;;;;;;4.89;100.00;96990.38;5042273;28;20118;-76
2021/10/23 02:16:12;;;;;;;12.37;2.30;;;;;;;4.84;100.00;96992.47;5026603;28;20036;-76
2021/10/23 02:18:38;;;;;;;7.23;2.30;;;;;;;4.81;100.00;96987.47;5029215;28;20500;-76
2021/10/23 02:21:06;;;;;;;9.73;2.03;;;;;;;4.82;100.00;96992.56;5032611;28;20043;-76
2021/10/23 02:23:32;;;;;;;8.33;1.93;;;;;;;4.83;100.00;96999.47;5039445;28;20068;-75
2021/10/23 02:25:59;;;;;;;8.80;2.50;;;;;;;4.86;100.00;96998.38;5038168;28;20116;-75
2021/10/23 02:28:24;;;;;;;8.20;2.10;;;;;;;4.81;100.00;96997.88;5020712;28;20036;-76
2021/10/23 02:30:50;;;;;;;10.57;2.53;;;;;;;4.86;100.00;96995.78;5038466;28;20394;-75
2021/10/23 02:33:16;;;;;;;10.80;2.20;;;;;;;4.82;100.00;96997.78;5042145;28;20044;-75
2021/10/23 02:35:42;;;;;;;7.93;2.30;;;;;;;4.82;100.00;96999.56;5027132;28;20993;-76
2021/10/23 02:38:07;;;;;;;6.83;2.20;;;;;;;4.75;100.00;97006.13;5028002;28;20125;-76
2021/10/23 02:40:34;;;;;;;7.37;2.13;;;;;;;4.86;100.00;97008.81;5038939;28;20029;-73
2021/10/23 02:42:59;;;;;;;10.40;2.27;;;;;;;4.77;100.00;97015.50;5037577;28;20737;-73
2021/10/23 02:45:25;;;;;;;7.10;2.33;;;;;;;4.85;100.00;97007.16;5029302;28;20029;-74
2021/10/23 02:47:51;;;;;;;6.43;2.10;;;;;;;4.83;100.00;97012.50;5039613;28;20025;-73
2021/10/23 02:50:16;;;;;;;6.67;2.43;;;;;;;4.80;100.00;97009.25;5033723;28;20030;-73
2021/10/23 02:52:42;;;;;;;4.60;1.77;;;;;;;4.79;100.00;97010.19;5021201;28;20053;-76
2021/10/23 02:55:09;;;;;;;7.43;2.27;;;;;;;4.86;100.00;97011.41;5032160;28;20041;-75
2021/10/23 02:57:35;;;;;;;8.80;2.27;;;;;;;4.82;100.00;97016.00;5040458;28;20116;-76
2021/10/23 03:00:02;;;;;;;8.90;2.73;;;;;;;4.95;100.00;97014.25;5003419;28;20045;-75
2021/10/23 03:02:28;;;;;;;7.27;2.07;;;;;;;4.91;100.00;97018.00;5030251;28;20650;-76
2021/10/23 03:04:54;;;;;;;6.57;2.40;;;;;;;5.00;100.00;97019.16;5027626;28;20029;-76
2021/10/23 03:07:19;;;;;;;6.97;2.07;;;;;;;4.98;100.00;97018.41;5030392;28;20103;-76
2021/10/23 03:09:45;;;;;;;9.90;2.20;;;;;;;4.97;100.00;97025.41;5029050;28;20025;-76
2021/10/23 03:12:11;;;;;;;7.00;1.93;;;;;;;5.00;100.00;97021.75;5072200;28;20064;-76
2021/10/23 03:14:37;;;;;;;8.50;2.10;;;;;;;4.98;100.00;97026.22;5043023;28;20065;-76
2021/10/23 03:17:03;;;;;;;8.70;1.90;;;;;;;5.05;100.00;97019.66;5030714;28;20038;-76
2021/10/23 03:19:28;;;;;;;10.10;2.10;;;;;;;5.02;100.00;97032.06;5033926;28;20475;-76
2021/10/23 03:21:55;;;;;;;7.50;2.33;;;;;;;5.11;100.00;97031.44;5025150;28;20037;-76
2021/10/23 03:24:20;;;;;;;6.20;2.33;;;;;;;5.08;100.00;97029.88;5039191;28;20104;-76
2021/10/23 03:26:46;;;;;;;9.10;2.17;;;;;;;5.11;100.00;97023.63;5037857;28;20048;-76
2021/10/23 03:29:12;;;;;;;6.57;2.33;;;;;;;5.04;100.00;97025.00;5036602;28;20495;-76
2021/10/23 03:31:37;;;;;;;6.43;2.50;;;;;;;5.02;100.00;97027.69;5033953;28;20223;-76
2021/10/23 03:34:03;;;;;;;7.93;2.40;;;;;;;5.08;100.00;97024.66;5036180;28;20637;-75
2021/10/23 03:36:29;;;;;;;10.10;2.07;;;;;;;5.08;100.00;97035.09;5029294;28;20030;-75
2021/10/23 03:38:54;;;;;;;8.67;2.43;;;;;;;5.13;100.00;97039.97;5021227;28;20032;-75
2021/10/23 03:41:20;;;;;;;9.00;2.60;;;;;;;5.11;100.00;97034.06;5045296;28;20111;-76
2021/10/23 03:43:46;;;;;;;9.70;2.13;;;;;;;5.06;100.00;97034.34;5032416;28;20030;-75
2021/10/23 03:46:11;;;;;;;8.80;2.47;;;;;;;5.06;100.00;97038.72;5020823;28;20069;-76
2021/10/23 03:48:37;;;;;;;5.83;2.10;;;;;;;5.07;100.00;97037.81;5034040;28;20026;-76
2021/10/23 03:51:03;;;;;;;8.40;2.40;;;;;;;5.04;100.00;97035.41;5026241;28;20033;-76
2021/10/23 03:53:28;;;;;;;10.33;2.10;;;;;;;5.11;100.00;97037.50;5041619;28;20033;-75
2021/10/23 03:55:54;;;;;;;14.83;2.83;;;;;;;5.12;100.00;97038.31;5040458;28;20020;-79
2021/10/23 03:58:20;;;;;;;6.97;2.00;;;;;;;5.15;100.00;97036.31;5037095;28;20178;-75
2021/10/23 04:00:46;;;;;;;9.07;3.10;;;;;;;5.14;100.00;97050.31;5032514;28;20120;-76
2021/10/23 04:03:12;;;;;;;7.20;2.40;;;;;;;5.08;100.00;97058.56;5022824;28;20029;-76
2021/10/23 04:05:37;;;;;;;6.53;2.13;;;;;;;5.05;100.00;97058.75;5042996;28;20520;-75
2021/10/23 04:08:03;;;;;;;9.83;2.40;;;;;;;5.05;100.00;97053.53;5044155;28;20047;-75
2021/10/23 04:10:29;;;;;;;9.13;2.30;;;;;;;5.10;100.00;97058.47;5038536;28;20031;-75
2021/10/23 04:12:55;;;;;;;5.73;1.90;;;;;;;5.09;100.00;97057.59;5038928;28;20089;-75
2021/10/23 04:15:22;;;;;;;7.20;1.90;;;;;;;5.07;100.00;97058.66;5031201;28;20048;-75
2021/10/23 04:17:48;;;;;;;5.40;2.00;;;;;;;5.11;100.00;97062.72;5037757;28;20040;-75
2021/10/23 04:20:13;;;;;;;6.63;2.03;;;;;;;5.13;100.00;97060.84;5012335;28;20084;-76
2021/10/23 04:22:39;;;;;;;6.27;1.90;;;;;;;5.17;100.00;97057.09;5035023;28;20036;-76
2021/10/23 04:25:06;;;;;;;8.17;2.83;;;;;;;5.19;100.00;97058.63;5040031;28;20032;-76
2021/10/23 04:27:32;;;;;;;8.60;2.67;;;;;;;5.13;100.00;97066.03;5036119;28;20037;-76
2021/10/23 04:29:57;;;;;;;6.57;3.80;;;;;;;5.12;100.00;97064.38;5037476;28;20026;-76
2021/10/23 04:32:23;;;;;;;7.00;2.33;;;;;;;5.12;100.00;97067.00;5032095;28;20034;-76
2021/10/23 04:34:49;;;;;;;7.37;2.07;;;;;;;5.13;100.00;97061.69;5030980;28;20021;-76
2021/10/23 04:37:14;;;;;;;10.17;2.20;;;;;;;5.13;100.00;97056.47;5047004;28;20494;-76
2021/10/23 04:39:40;;;;;;;11.30;2.67;;;;;;;5.11;100.00;97062.72;5039697;28;20386;-76
2021/10/23 04:42:06;;;;;;;10.47;2.80;;;;;;;5.11;100.00;97060.13;5034854;28;20033;-76
2021/10/23 04:44:32;;;;;;;8.23;1.90;;;;;;;5.18;100.00;97071.78;5037451;28;20021;-76
2021/10/23 04:46:58;;;;;;;8.47;2.83;;;;;;;5.18;100.00;97074.41;5038381;28;20084;-75
2021/10/23 04:49:24;;;;;;;6.67;1.90;;;;;;;5.16;100.00;97082.34;5035590;28;20037;-76
2021/10/23 04:51:49;;;;;;;7.77;2.33;;;;;;;5.16;100.00;97078.88;5029193;28;20076;-76
2021/10/23 04:54:15;;;;;;;8.00;2.33;;;;;;;5.19;100.00;97083.88;5037861;28;20490;-75
2021/10/23 04:56:41;;;;;;;7.73;2.20;;;;;;;5.23;100.00;97082.75;5032984;28;20059;-76
2021/10/23 04:59:07;;;;;;;6.53;2.00;;;;;;;5.19;100.00;97086.50;5035134;28;20080;-76
2021/10/23 05:01:32;;;;;;;10.00;2.63;;;;;;;5.24;100.00;97084.41;5036806;28;20025;-76
2021/10/23 05:03:58;;;;;;;7.03;1.80;;;;;;;5.26;100.00;97087.75;5024229;28;20018;-76
2021/10/23 05:06:23;;;;;;;6.37;2.50;;;;;;;5.29;100.00;97081.47;5026411;28;20068;-76
2021/10/23 05:08:49;;;;;;;8.13;2.60;;;;;;;5.29;100.00;97084.91;5035356;28;20021;-76
2021/10/23 05:11:15;;;;;;;7.23;2.17;;;;;;;5.26;100.00;97079.09;5037103;28;20704;-76
2021/10/23 05:13:40;;;;;;;9.13;2.20;;;;;;;5.28;100.00;97082.44;5036875;28;20407;-76
2021/10/23 05:16:06;;;;;;;6.07;2.10;;;;;;;5.26;100.00;97079.91;5036901;28;20075;-76
2021/10/23 05:18:32;;;;;;;7.73;2.00;;;;;;;5.23;100.00;97087.97;5026260;28;20029;-76
2021/10/23 05:20:58;;;;;;;7.73;1.93;;;;;;;5.28;100.00;97090.25;5038730;28;20025;-77
2021/10/23 05:23:23;;;;;;;5.93;2.03;;;;;;;5.30;100.00;97086.63;5023956;28;20049;-76
2021/10/23 05:25:49;;;;;;;9.23;2.37;;;;;;;5.35;100.00;97096.72;5033980;28;20112;-76
2021/10/23 05:28:15;;;;;;;9.60;3.17;;;;;;;5.29;100.00;97103.19;5036012;28;20073;-76
2021/10/23 05:30:41;;;;;;;6.63;2.17;;;;;;;5.31;100.00;97097.88;5032670;28;20025;-76
2021/10/23 05:33:08;;;;;;;10.50;2.27;;;;;;;5.25;100.00;97087.84;5020709;28;20026;-76
2021/10/23 05:35:33;;;;;;;7.00;2.03;;;;;;;5.30;100.00;97091.81;5031335;28;20035;-76
2021/10/23 05:37:59;;;;;;;5.97;2.10;;;;;;;5.31;100.00;97090.03;5035397;28;20025;-76
2021/10/23 05:40:25;;;;;;;10.97;2.57;;;;;;;5.33;100.00;97098.59;5039677;28;20124;-76
2021/10/23 05:42:50;;;;;;;4.33;1.70;;;;;;;5.31;100.00;97096.09;5031508;28;20022;-76
2021/10/23 05:45:16;;;;;;;10.97;2.33;;;;;;;5.28;100.00;97096.31;5037251;28;20126;-76
2021/10/23 05:47:42;;;;;;;8.27;2.87;;;;;;;5.27;100.00;97107.69;5041427;28;20052;-76
2021/10/23 05:50:11;;;;;;;7.30;2.03;;;;;;;5.28;100.00;97104.13;5039616;28;20124;-76
2021/10/23 05:52:37;;;;;;;9.03;2.00;;;;;;;5.26;100.00;97108.59;5035786;28;20171;-76
2021/10/23 05:55:03;;;;;;;8.07;2.23;;;;;;;5.27;100.00;97114.69;5035765;28;20124;-76
2021/10/23 05:57:29;;;;;;;8.00;2.30;;;;;;;5.25;100.00;97111.31;5014625;28;20025;-75
2021/10/23 05:59:55;;;;;;;6.53;2.17;;;;;;;5.28;100.00;97118.94;5037072;28;20044;-76
2021/10/23 06:04:58;;;;;;;6.97;2.20;;;;;;;5.22;100.00;97129.78;5032142;28;20033;-75
2021/10/23 06:07:25;;;;;;;12.00;2.30;;;;;;;5.24;100.00;97130.53;5038457;28;20033;-73
2021/10/23 06:09:52;;;;;;;8.77;2.10;;;;;;;5.28;100.00;97124.16;5038985;28;20078;-74
2021/10/23 06:12:18;;;;;;;6.47;2.60;;;;;;;5.27;100.00;97135.53;5036353;28;20039;-74
2021/10/23 06:14:44;;;;;;;8.03;2.10;;;;;;;5.30;100.00;97140.53;5035031;28;20021;-73
2021/10/23 06:17:10;;;;;;;6.43;2.00;;;;;;;5.32;100.00;97152.53;5036400;28;20037;-74
2021/10/23 06:19:37;;;;;;;11.27;4.30;;;;;;;5.35;100.00;97148.88;5027664;28;20025;-74
2021/10/23 06:22:05;;;;;;;8.67;2.60;;;;;;;5.34;100.00;97142.00;5034681;28;20088;-74
2021/10/23 06:24:31;;;;;;;7.00;2.50;;;;;;;5.37;100.00;97147.84;5029536;28;20021;-74
2021/10/23 06:26:57;;;;;;;8.50;3.23;;;;;;;5.32;100.00;97155.13;5034121;28;20109;-74
2021/10/23 06:29:23;;;;;;;8.97;2.53;;;;;;;5.30;100.00;97151.81;5036535;28;20286;-74
2021/10/23 06:31:48;;;;;;;7.23;2.30;;;;;;;5.28;100.00;97158.88;5037523;28;20026;-74
2021/10/23 06:34:14;;;;;;;8.43;2.83;;;;;;;5.28;100.00;97163.28;5005230;28;20026;-74
2021/10/23 06:36:40;;;;;;;9.10;3.47;;;;;;;5.21;100.00;97168.06;5030778;28;20040;-73
2021/10/23 06:39:05;;;;;;;9.33;2.60;;;;;;;5.29;100.00;97170.16;5043290;28;20021;-74
2021/10/23 06:41:31;;;;;;;8.27;3.00;;;;;;;5.32;100.00;97170.78;5037418;28;20040;-74
2021/10/23 06:43:57;;;;;;;6.80;2.90;;;;;;;5.31;100.00;97182.16;5036037;28;20017;-74
2021/10/23 06:46:24;;;;;;;7.90;3.13;;;;;;;5.35;100.00;97183.63;5042606;28;20033;-74
2021/10/23 06:48:50;;;;;;;7.77;3.07;;;;;;;5.33;100.00;97184.66;5034088;28;20040;-74
2021/10/23 06:51:17;;;;;;;12.63;5.57;;;;;;;5.34;100.00;97189.78;5032127;28;20495;-74
2021/10/23 06:53:43;;;;;;;19.20;5.67;;;;;;;5.31;100.00;97189.16;5039675;28;20083;-74
2021/10/23 06:56:09;;;;;;;10.13;4.03;;;;;;;5.29;100.00;97191.84;5040633;28;20915;-73
2021/10/23 06:58:34;;;;;;;10.80;3.53;;;;;;;5.33;100.00;97193.34;5039920;28;20029;-74
2021/10/23 07:01:00;;;;;;;7.97;3.00;;;;;;;5.19;100.00;97182.97;5043174;28;20076;-74
2021/10/23 07:03:26;;;;;;;8.37;3.10;;;;;;;5.31;100.00;97189.97;5039639;28;20022;-74
2021/10/23 07:05:53;;;;;;;12.87;3.40;;;;;;;5.52;100.00;97192.91;5030975;28;20025;-74
2021/10/23 07:08:19;;;;;;;7.73;3.53;;;;;;;5.59;100.00;97182.88;5028826;28;20135;-74
2021/10/23 07:10:45;;;;;;;9.97;3.10;;;;;;;6.47;100.00;97175.00;5025014;28;20056;-74
2021/10/23 07:13:10;;;;;;;8.27;3.17;;;;;;;6.79;98.76;97167.44;5038967;28;20055;-74
2021/10/23 07:15:37;;;;;;;7.43;2.87;;;;;;;7.30;95.17;97165.31;5036959;28;20037;-74
2021/10/23 07:18:03;;;;;;;8.47;3.73;;;;;;;7.87;91.97;97165.38;5038298;28;20061;-74
2021/10/23 07:20:29;;;;;;;7.43;2.43;;;;;;;8.20;89.78;97170.59;5035449;28;20025;-73
2021/10/23 07:22:56;;;;;;;7.90;3.27;;;;;;;8.67;87.70;97165.97;5035230;28;20025;-74
2021/10/23 07:25:22;;;;;;;6.47;2.50;;;;;;;9.28;84.55;97167.97;5030907;28;20453;-73
2021/10/23 07:27:47;;;;;;;7.97;2.53;;;;;;;9.48;83.67;97174.16;5017364;28;20029;-73
2021/10/23 07:30:13;;;;;;;9.37;2.43;;;;;;;9.90;80.14;97179.38;5030484;28;20029;-74
2021/10/23 07:32:40;;;;;;;9.07;2.47;;;;;;;10.08;78.38;97184.81;5060187;28;20129;-74
2021/10/23 07:35:08;;;;;;;7.07;2.33;;;;;;;10.46;77.06;97180.66;5015993;28;20383;-74
2021/10/23 07:37:34;;;;;;;6.73;2.00;;;;;;;10.56;76.70;97179.75;5026769;28;20116;-74
2021/10/23 07:40:01;;;;;;;8.27;2.30;;;;;;;10.44;76.35;97180.00;5041944;28;20546;-74
2021/10/23 07:42:26;;;;;;;5.80;1.60;;;;;;;10.42;74.43;97195.06;5037421;28;20027;-74
2021/10/23 07:44:52;;;;;;;7.80;2.30;;;;;;;10.40;76.20;97197.84;5020611;28;20724;-74
2021/10/23 07:47:18;;;;;;;11.07;2.40;;;;;;;9.59;79.23;97203.00;5035846;28;20029;-74
2021/10/23 07:49:45;;;;;;;6.63;1.97;;;;;;;9.33;82.25;97222.72;5024076;28;20037;-74
2021/10/23 07:52:12;;;;;;;5.17;2.20;;;;;;;9.32;82.38;97218.41;5031517;28;20479;-74
2021/10/23 07:54:38;;;;;;;6.60;2.23;;;;;;;9.17;83.65;97223.97;5025291;28;20037;-74
2021/10/23 07:57:04;;;;;;;8.30;2.47;;;;;;;9.10;85.20;97228.06;5038772;28;20057;-74
2021/10/23 07:59:31;;;;;;;5.93;2.13;;;;;;;8.93;85.72;97228.59;5043077;28;20036;-74
2021/10/23 08:02:01;;;;;;;7.37;2.43;;;;;;;9.00;84.67;97221.91;5038591;28;20021;-74
2021/10/23 08:04:28;;;;;;;8.20;2.20;;;;;;;10.31;78.48;97217.03;5027936;28;20061;-74
2021/10/23 08:06:55;;;;;;;8.50;2.53;;;;;;;10.05;80.61;97222.72;5036657;28;20036;-74
2021/10/23 08:09:21;;;;;;;8.30;3.33;;;;;;;9.91;79.66;97223.06;5029578;28;20084;-74
2021/10/23 08:11:47;;;;;;;18.57;8.57;;;;;;;9.52;83.39;97227.25;5027498;28;20029;-76
2021/10/23 08:14:13;;;;;;;11.03;5.00;;;;;;;9.51;82.62;97233.47;5048047;28;20044;-74
2021/10/23 08:16:39;;;;;;;9.20;2.90;;;;;;;9.67;82.18;97223.34;5043037;28;20426;-74
2021/10/23 08:19:05;;;;;;;7.63;2.30;;;;;;;9.87;82.00;97234.81;5028809;28;20044;-74
2021/10/23 08:21:32;;;;;;;6.87;2.60;;;;;;;9.70;82.39;97236.22;5033619;28;20367;-74
2021/10/23 08:23:59;;;;;;;6.97;2.20;;;;;;;8.80;86.08;97248.91;5032962;28;20116;-74
2021/10/23 08:26:25;;;;;;;7.77;2.70;;;;;;;8.78;86.67;97246.41;5031134;28;20037;-74
2021/10/23 08:28:51;;;;;;;8.30;3.47;;;;;;;8.95;86.92;97238.03;5029571;28;20136;-74
2021/10/23 08:31:16;;;;;;;7.90;3.43;;;;;;;9.20;87.09;97242.09;5059504;28;20474;-74
2021/10/23 08:33:42;;;;;;;10.63;4.20;;;;;;;9.40;85.70;97250.13;5027928;28;20455;-75
2021/10/23 08:36:08;;;;;;;7.70;3.70;;;;;;;9.35;85.86;97260.16;5041417;28;20548;-74
2021/10/23 08:38:33;;;;;;;6.40;3.20;;;;;;;9.34;84.98;97261.13;5028536;28;20566;-74
2021/10/23 08:41:01;;;;;;;6.80;3.20;;;;;;;8.95;87.83;97259.00;5035088;28;21551;-75
2021/10/23 08:43:27;;;;;;;11.37;3.33;;;;;;;9.10;86.30;97261.34;5003215;28;20311;-74
2021/10/23 08:45:58;;;;;;;7.07;3.10;;;;;;;8.99;86.83;97262.22;5017698;28;20108;-74
2021/10/23 08:48:26;;;;;;;10.27;2.93;;;;;;;9.26;87.27;97258.31;5021339;28;20159;-75
2021/10/23 08:50:52;;;;;;;9.87;4.10;;;;;;;9.01;87.08;97252.41;5033104;28;20129;-75
2021/10/23 08:53:19;;;;;;;13.23;4.03;;;;;;;9.17;86.82;97247.59;5031667;28;20041;-74
2021/10/23 08:55:45;;;;;;;8.03;3.70;;;;;;;9.49;85.65;97244.13;5012754;28;20034;-74
2021/10/23 08:58:16;;;;;;;9.67;3.77;;;;;;;9.82;83.22;97237.81;5045839;28;20368;-74
2021/10/23 09:00:43;;;;;;;9.50;3.10;;;;;;;9.56;84.16;97244.44;5031203;28;20040;-74
2021/10/23 09:03:10;;;;;;;8.43;3.23;;;;;;;9.64;83.50;97247.25;5017034;28;20033;-74
2021/10/23 09:05:37;;;;;;;7.70;3.80;;;;;;;9.76;84.56;97248.00;5032744;28;20063;-74
2021/10/23 09:08:14;;;;;;;10.43;3.67;;;;;;;9.63;84.47;97254.28;5039943;28;20052;-73
2021/10/23 09:10:45;;;;;;;6.00;3.03;;;;;;;9.65;84.56;97256.78;5028135;28;20029;-74
2021/10/23 09:13:11;;;;;;;12.33;3.30;;;;;;;9.93;84.30;97257.09;5036515;28;20083;-74
2021/10/23 09:15:39;;;;;;;12.30;3.77;;;;;;;9.45;87.87;97258.44;5027553;28;20399;-74
2021/10/23 09:18:06;;;;;;;13.13;3.87;;;;;;;9.45;87.41;97256.63;5022392;28;20183;-74
2021/10/23 09:20:42;;;;;;;10.10;3.53;;;;;;;10.77;78.44;97258.56;5057991;28;20017;-75
2021/10/23 09:23:19;;;;;;;9.27;3.13;;;;;;;10.12;81.05;97258.00;5021518;28;20084;-75
2021/10/23 09:25:46;;;;;;;13.70;3.40;;;;;;;10.43;81.51;97260.69;5031951;28;20502;-76
2021/10/23 09:28:26;;;;;;;8.90;3.43;;;;;;;10.06;80.01;97261.19;5013718;28;20040;-76
2021/10/23 09:30:52;;;;;;;6.23;3.60;;;;;;;10.66;79.43;97253.38;5019180;28;20041;-76
2021/10/23 09:33:20;;;;;;;7.83;4.20;;;;;;;10.65;80.68;97264.06;5032194;28;20029;-76
2021/10/23 09:35:59;;;;;;;8.93;3.83;;;;;;;10.51;79.96;97262.63;5037213;28;20036;-76
2021/10/23 09:38:32;;;;;;;9.67;3.47;;;;;;;9.99;82.15;97273.16;5036547;28;20029;-77
2021/10/23 09:41:12;;;;;;;9.30;3.53;;;;;;;9.92;82.66;97274.63;5031037;28;20786;-77
2021/10/23 09:43:38;;;;;;;9.37;4.37;;;;;;;9.94;81.73;97277.97;5035406;28;20055;-75
2021/10/23 09:46:08;;;;;;;7.87;3.33;;;;;;;9.49;82.45;97275.63;5034066;28;20135;-75
2021/10/23 09:48:53;;;;;;;8.90;3.33;;;;;;;9.54;83.44;97278.69;5030601;28;20038;-75
2021/10/23 09:51:23;;;;;;;8.83;3.33;;;;;;;9.66;82.04;97287.34;5046923;28;20048;-74
2021/10/23 09:53:52;;;;;;;9.20;3.17;;;;;;;10.12;83.79;97279.03;5025324;28;20040;-75
2021/10/23 09:56:21;;;;;;;7.80;3.10;;;;;;;10.02;79.81;97277.31;5037520;28;20156;-75
2021/10/23 09:58:58;;;;;;;7.07;2.83;;;;;;;9.70;81.16;97277.44;5033306;28;20486;-74
2021/10/23 10:01:33;;;;;;;7.83;3.07;;;;;;;9.57;83.25;97278.44;5040567;28;20041;-75
2021/10/23 10:04:01;;;;;;;8.47;3.07;;;;;;;9.32;82.98;97284.88;5017508;28;20024;-74
2021/10/23 10:06:28;;;;;;;6.83;3.17;;;;;;;9.57;81.50;97277.59;5027087;28;20083;-74
2021/10/23 10:08:55;;;;;;;10.97;4.67;;;;;;;11.25;76.17;97278.00;5030653;28;20037;-74
2021/10/23 10:11:21;;;;;;;6.30;2.60;;;;;;;10.96;72.69;97286.69;5041922;28;20025;-74
2021/10/23 10:13:47;;;;;;;6.83;2.60;;;;;;;10.44;75.28;97286.00;5025327;28;20025;-74
2021/10/23 10:16:14;;;;;;;11.60;3.53;;;;;;;10.90;74.49;97284.63;5018344;28;20098;-75
2021/10/23 10:18:45;;;;;;;6.33;2.97;;;;;;;11.12;74.28;97277.44;5028563;28;20032;-75
2021/10/23 10:21:13;;;;;;;5.57;2.23;;;;;;;11.08;70.94;97275.09;5032582;28;20037;-74
2021/10/23 10:23:42;;;;;;;7.17;2.90;;;;;;;10.83;73.79;97283.47;5025840;28;20021;-74
2021/10/23 10:26:28;;;;;;;6.07;3.63;;;;;;;10.43;75.75;97292.25;5040174;28;20063;-74
2021/10/23 10:29:13;;;;;;;9.00;3.10;;;;;;;10.53;74.50;97293.09;5031783;28;20392;-74
2021/10/23 10:42:41;;;;;;;4.37;2.30;;;;;;;10.71;75.84;97266.16;5028552;28;20038;-74
2021/10/23 10:42:59;;;;;;;6.57;2.80;;;;;;;10.74;73.32;97279.88;5025946;28;20037;-75
2021/10/23 10:45:46;;;;;;;10.27;2.90;;;;;;;10.86;72.59;97275.31;5056011;28;20037;-74
2021/10/23 10:48:20;;;;;;;6.83;2.93;;;;;;;10.59;73.10;97270.69;5029528;28;20032;-74
2021/10/23 10:50:57;;;;;;;7.87;3.03;;;;;;;10.76;73.45;97271.84;5037465;28;20021;-74
2021/10/23 10:53:24;;;;;;;9.97;3.10;;;;;;;11.07;71.90;97270.81;5015321;28;20037;-75
2021/10/23 10:55:55;;;;;;;7.30;3.20;;;;;;;10.67;73.87;97272.66;5015359;28;20399;-74
2021/10/23 10:58:57;;;;;;;7.27;4.07;;;;;;;10.69;75.38;97281.22;5031529;28;20029;-74
2021/10/23 11:01:28;;;;;;;8.40;3.47;;;;;;;10.57;75.67;97283.97;5017493;28;20046;-74
2021/10/23 11:04:05;;;;;;;9.63;6.33;;;;;;;10.51;76.47;97288.94;5012083;28;20560;-74
2021/10/23 11:06:36;;;;;;;12.40;7.77;;;;;;;10.25;77.08;97272.75;5027909;28;20078;-74
2021/10/23 11:09:19;;;;;;;10.37;5.53;;;;;;;10.48;73.92;97279.50;5038354;28;20041;-74
2021/10/23 11:11:49;;;;;;;6.53;2.58;;;;;;;10.68;74.41;97274.31;5028951;28;20053;-74
2021/10/23 11:14:23;;;;;;;9.83;3.17;;;;;;;11.09;72.46;97271.47;5048355;28;20381;-75
2021/10/23 11:19:37;;;;;;;6.90;2.80;;;;;;;10.71;73.01;97271.41;5032471;28;20036;-75
2021/10/23 11:22:04;;;;;;;5.73;2.53;;;;;;;10.71;73.78;97279.31;5031074;28;20029;-74
2021/10/23 11:25:06;;;;;;;11.17;3.77;;;;;;;10.81;74.01;97274.91;5020733;28;20096;-74
2021/10/23 11:27:43;;;;;;;10.60;2.70;;;;;;;10.58;72.74;97277.75;5053078;28;20037;-74
2021/10/23 11:30:23;;;;;;;7.10;2.47;;;;;;;10.57;73.21;97278.72;5023141;28;20041;-74
2021/10/23 11:32:53;;;;;;;5.60;2.60;;;;;;;10.64;73.57;97270.28;5029178;28;20048;-74
2021/10/23 11:35:33;;;;;;;6.47;2.70;;;;;;;10.48;74.23;97266.34;5027965;28;20029;-74
2021/10/23 11:38:01;;;;;;;7.07;2.73;;;;;;;10.36;72.72;97267.41;5040587;28;20486;-74
2021/10/23 11:40:27;;;;;;;7.00;2.27;;;;;;;10.13;73.51;97264.94;5038052;28;20449;-73
2021/10/23 11:42:53;;;;;;;6.60;2.47;;;;;;;10.36;73.75;97268.28;5028826;28;20041;-73
2021/10/23 11:45:24;;;;;;;4.80;2.20;;;;;;;10.74;71.60;97268.53;5012191;28;20031;-74
2021/10/23 11:47:53;;;;;;;9.20;5.07;;;;;;;10.76;70.39;97271.84;5029635;28;20036;-74
2021/10/23 11:50:32;;;;;;;8.63;3.60;;;;;;;10.85;70.31;97276.28;5037958;28;20690;-73